createdAt,value
2023-01-27T00:07:57.943Z,-0.63
2023-01-27T00:17:58.042Z,-0.7
2023-01-27T00:27:57.979Z,-0.86
2023-01-27T00:37:58.018Z,-1.04
2023-01-27T00:47:57.982Z,-1.02
2023-01-27T00:57:58.026Z,-1.07
2023-01-27T01:07:58.016Z,-1.23
2023-01-27T01:17:58.052Z,-1.39
2023-01-27T01:27:58.035Z,-1.36
2023-01-27T01:37:58.088Z,-1.44
2023-01-27T01:47:58.042Z,-1.41
2023-01-27T01:57:58.101Z,-1.6
2023-01-27T02:07:58.047Z,-1.86
2023-01-27T02:17:58.101Z,-1.91
2023-01-27T02:27:58.089Z,-1.88
2023-01-27T02:37:58.085Z,-2.06
2023-01-27T02:47:58.110Z,-2.47
2023-01-27T02:57:58.114Z,-2.57
2023-01-27T03:07:58.146Z,-2.89
2023-01-27T03:17:58.168Z,-3.09
2023-01-27T03:27:58.144Z,-3.45
2023-01-27T03:37:58.154Z,-3.64
2023-01-27T03:47:58.134Z,-3.76
2023-01-27T03:57:58.221Z,-3.67
2023-01-27T04:07:58.186Z,-3.94
2023-01-27T04:17:58.227Z,-4.06
2023-01-27T04:27:58.193Z,-3.96
2023-01-27T04:37:58.233Z,-4.16
2023-01-27T04:47:58.215Z,-4.4
2023-01-27T04:57:58.276Z,-4.49
2023-01-27T05:07:58.265Z,-4.5
2023-01-27T05:17:58.280Z,-4.66
2023-01-27T05:27:58.282Z,-4.69
2023-01-27T05:37:58.312Z,-4.87
2023-01-27T05:47:58.298Z,-5.05
2023-01-27T05:57:58.341Z,-4.95
2023-01-27T06:07:58.366Z,-4.93
2023-01-27T06:17:58.411Z,-5.11
2023-01-27T06:27:58.335Z,-4.99
2023-01-27T06:37:58.467Z,-4.98
2023-01-27T06:47:58.405Z,-5.04
2023-01-27T06:57:58.411Z,-5.03
2023-01-27T07:07:58.393Z,-4.93
2023-01-27T07:17:58.427Z,-4.69
2023-01-27T07:27:58.469Z,-4.52
2023-01-27T07:37:58.475Z,-4.38
2023-01-27T07:47:58.462Z,-4.26
2023-01-27T07:57:58.484Z,-4.1
2023-01-27T08:07:59.136Z,-3.82
2023-01-27T08:17:58.487Z,-3.41
2023-01-27T08:27:58.497Z,-2.93
2023-01-27T08:37:58.511Z,-2.24
2023-01-27T08:47:58.502Z,-1.49
2023-01-27T08:57:58.531Z,-0.4
2023-01-27T09:07:58.516Z,0.16
2023-01-27T09:17:58.667Z,0.34
2023-01-27T09:27:58.539Z,0.28
2023-01-27T09:37:58.546Z,-0.53
2023-01-27T09:47:58.539Z,0.49
2023-01-27T09:57:58.581Z,1.9
2023-01-27T10:07:58.546Z,2.72
2023-01-27T10:17:58.586Z,2.84
2023-01-27T10:27:58.550Z,3.97
2023-01-27T10:37:58.631Z,4.24
2023-01-27T10:47:58.567Z,4.65
2023-01-27T10:57:58.594Z,4.73
2023-01-27T11:07:58.548Z,4.16
2023-01-27T11:17:58.602Z,3.86
2023-01-27T11:27:58.567Z,4.56
2023-01-27T11:38:14.401Z,3.66
2023-01-27T11:47:58.565Z,2.73
2023-01-27T11:57:58.593Z,2.46
2023-01-27T12:07:58.584Z,2.37
2023-01-27T12:17:58.605Z,2.24
2023-01-27T12:27:58.580Z,2.27
2023-01-27T12:37:58.618Z,2.33
2023-01-27T12:47:58.615Z,2.51
2023-01-27T12:57:58.578Z,2.43
2023-01-27T13:07:58.583Z,2.65
2023-01-27T13:17:58.631Z,2.4
2023-01-27T13:27:58.578Z,2.32
2023-01-27T13:37:58.610Z,2.37
2023-01-27T13:47:58.591Z,2.48
2023-01-27T13:57:58.619Z,2.15
2023-01-27T14:07:58.607Z,1.96
2023-01-27T14:17:58.628Z,2
2023-01-27T14:27:58.639Z,1.93
2023-01-27T14:37:58.668Z,1.69
2023-01-27T14:47:58.610Z,1.46
2023-01-27T14:57:58.646Z,1.34
2023-01-27T15:07:58.705Z,1.29
2023-01-27T15:17:58.654Z,1.17
2023-01-27T15:27:58.639Z,1
2023-01-27T15:37:58.698Z,0.81
2023-01-27T15:47:58.771Z,0.58
2023-01-27T15:57:58.721Z,0.3
2023-01-27T16:07:58.682Z,0
2023-01-27T16:17:58.690Z,-0.28
2023-01-27T16:27:58.772Z,-0.37
2023-01-27T16:37:58.727Z,-0.41
2023-01-27T16:47:58.691Z,-0.4
2023-01-27T16:57:58.745Z,-0.41
2023-01-27T17:07:58.704Z,-0.39
2023-01-27T17:17:58.781Z,-0.24
2023-01-27T17:27:58.738Z,-0.27
2023-01-27T17:37:58.763Z,-0.34
2023-01-27T17:47:58.742Z,-0.41
2023-01-27T17:57:58.779Z,-0.48
2023-01-27T18:07:58.727Z,-0.63
2023-01-27T18:17:58.758Z,-0.71
2023-01-27T18:27:58.799Z,-0.8
2023-01-27T18:37:58.812Z,-0.96
2023-01-27T18:47:58.781Z,-1.06
2023-01-27T18:57:58.822Z,-1.13
2023-01-27T19:07:58.762Z,-1.18
2023-01-27T19:17:58.808Z,-1.19
2023-01-27T19:27:58.819Z,-1.22
2023-01-27T19:37:58.817Z,-1.24
2023-01-27T19:47:58.799Z,-1.28
2023-01-27T19:57:58.842Z,-1.33
2023-01-27T20:07:58.827Z,-1.36
2023-01-27T20:17:58.877Z,-1.38
2023-01-27T20:27:58.857Z,-1.43
2023-01-27T20:37:58.854Z,-1.49
2023-01-27T20:47:58.843Z,-1.51
2023-01-27T20:57:58.893Z,-1.56
2023-01-27T21:07:58.889Z,-1.53
2023-01-27T21:17:58.907Z,-1.51
2023-01-27T21:27:58.898Z,-1.48
2023-01-27T21:37:58.920Z,-1.52
2023-01-27T21:47:58.919Z,-1.53
2023-01-27T21:57:58.939Z,-1.54
2023-01-27T22:07:59.297Z,-1.77
2023-01-27T22:17:59.002Z,-2.03
2023-01-27T22:27:58.958Z,-2.26
2023-01-27T22:37:58.985Z,-2.34
2023-01-27T22:47:58.955Z,-2.35
2023-01-27T22:57:58.977Z,-2.27
2023-01-27T23:07:58.991Z,-2.3
2023-01-27T23:17:59.014Z,-2.33
2023-01-27T23:27:59.016Z,-2.29
2023-01-27T23:37:59.053Z,-2.27
2023-01-27T23:47:59.022Z,-2.28
2023-01-27T23:57:59.043Z,-2.27
